Time;durP1;ratioP1;P1;durP2;ratioP2;P2;SDS_P1;SDS_P2;PMS_P1;PMS_P2;Temp;Humidity;BMP_temperature;BMP_pressure;BME280_temperature;BME280_humidity;BME280_pressure;Samples;Min_cycle;Max_cycle;Signal;HPM_P1;HPM_P2
2021/04/19 00:00:53;;;;;;;30.65;26.33;;;0.50;1.40;;;1.45;100.00;95562.17;627696;221;32086;-75
2021/04/19 00:03:22;;;;;;;28.63;22.67;;;0.50;1.40;;;1.39;100.00;95560.48;630880;224;23512;-74
2021/04/19 00:05:51;;;;;;;27.80;20.63;;;0.50;1.40;;;1.34;100.00;95561.00;630274;225;24542;-74
2021/04/19 00:08:20;;;;;;;28.20;21.20;;;0.50;1.40;;;1.28;100.00;95561.36;643518;221;24498;-74
2021/04/19 00:10:49;;;;;;;26.10;19.50;;;0.50;1.40;;;1.25;100.00;95555.97;655201;215;26612;-75
2021/04/19 00:13:18;;;;;;;24.20;19.00;;;0.40;1.40;;;1.34;100.00;95554.48;657743;215;28808;-74
2021/04/19 00:18:28;;;;;;;30.27;25.00;;;0.50;1.40;;;1.33;100.00;95556.97;646712;212;32228;-72
2021/04/19 00:23:37;;;;;;;35.13;27.75;;;0.50;1.40;;;1.48;100.00;95542.19;647409;212;32491;-72
2021/04/19 00:26:06;;;;;;;28.80;23.20;;;0.70;1.40;;;1.57;100.00;95535.41;640262;221;23519;-73
2021/04/19 00:28:35;;;;;;;26.23;20.40;;;0.90;1.40;;;1.55;100.00;95542.16;640762;221;24535;-73
2021/04/19 00:31:04;;;;;;;24.93;21.40;;;0.90;1.40;;;1.50;100.00;95535.83;637436;221;24534;-73
2021/04/19 00:35:51;;;;;;;30.88;24.87;;;0.90;1.40;;;1.57;100.00;95532.34;646108;212;42228;-73
2021/04/19 00:38:20;;;;;;;28.83;22.00;;;1.00;1.40;;;1.61;100.00;95532.84;641483;220;28809;-73
2021/04/19 00:40:49;;;;;;;25.77;20.80;;;1.00;1.40;;;1.60;100.00;95532.50;655751;215;24502;-73
2021/04/19 00:43:18;;;;;;;25.40;19.90;;;1.00;1.40;;;1.68;100.00;95532.38;669551;211;24413;-73
2021/04/19 00:45:48;;;;;;;30.33;19.77;;;1.00;1.40;;;1.63;100.00;95530.94;669169;211;24398;-73
2021/04/19 00:48:17;;;;;;;26.90;19.97;;;1.00;1.40;;;1.61;100.00;95526.37;654415;216;24624;-73
2021/04/19 00:50:46;;;;;;;21.30;18.13;;;1.00;1.40;;;1.59;100.00;95521.91;654341;215;24469;-72
2021/04/19 00:53:15;;;;;;;24.97;19.60;;;1.10;1.40;;;1.71;100.00;95522.21;670083;211;24440;-72
2021/04/19 00:55:44;;;;;;;23.27;17.77;;;1.10;1.40;;;1.79;100.00;95522.47;669579;211;24418;-72
2021/04/19 00:58:13;;;;;;;26.13;18.20;;;1.20;1.40;;;1.86;100.00;95524.11;668244;211;24779;-73
2021/04/19 01:00:42;;;;;;;25.50;19.90;;;1.30;1.40;;;1.92;100.00;95520.85;669357;211;24414;-71
2021/04/19 01:03:12;;;;;;;26.10;19.83;;;1.30;1.40;;;2.03;100.00;95520.66;668171;211;24964;-72
2021/04/19 01:05:41;;;;;;;29.90;21.73;;;1.50;1.40;;;2.07;100.00;95524.96;666980;211;24403;-73
2021/04/19 01:08:10;;;;;;;25.83;19.77;;;1.40;1.40;;;2.13;100.00;95521.50;668896;211;24406;-72
2021/04/19 01:10:39;;;;;;;29.60;22.10;;;1.50;1.40;;;2.12;100.00;95518.55;668324;211;24487;-72
2021/04/19 01:13:08;;;;;;;28.13;20.27;;;1.50;1.40;;;2.15;100.00;95516.77;653134;216;24461;-73
2021/04/19 01:15:37;;;;;;;29.60;24.73;;;1.50;1.40;;;2.11;100.00;95515.49;636094;220;31786;-72
2021/04/19 01:18:06;;;;;;;32.00;24.77;;;1.50;1.40;;;2.09;100.00;95514.77;628710;225;28824;-72
2021/04/19 01:20:41;;;;;;;27.97;21.83;;;1.50;1.40;;;2.14;100.00;95513.39;635847;223;24521;-72
2021/04/19 01:23:10;;;;;;;28.37;20.60;;;1.50;1.40;;;2.21;100.00;95513.20;641844;220;24507;-72
2021/04/19 01:25:39;;;;;;;25.37;19.40;;;1.60;1.40;;;2.27;100.00;95516.50;655365;215;24463;-71
2021/04/19 01:28:08;;;;;;;28.60;21.80;;;1.70;1.40;;;2.32;100.00;95510.78;639540;220;24525;-73
2021/04/19 01:30:38;;;;;;;26.60;20.50;;;1.60;1.40;;;2.36;100.00;95513.33;637095;223;24517;-72
2021/04/19 01:35:52;;;;;;;28.73;24.35;;;1.70;1.40;;;2.41;100.00;95513.06;646756;212;31573;-74
2021/04/19 01:38:21;;;;;;;27.98;24.33;;;1.80;1.40;;;2.41;100.00;95517.03;635345;221;31819;-74
2021/04/19 01:40:53;;;;;;;28.80;21.17;;;1.80;1.40;;;2.44;100.00;95514.03;641702;220;24004;-74
2021/04/19 01:46:00;;;;;;;29.42;24.40;;;1.90;1.40;;;2.52;100.00;95521.45;621101;226;31930;-74
2021/04/19 01:48:29;;;;;;;24.20;19.37;;;1.90;1.40;;;2.68;100.00;95515.48;643094;220;23524;-74
2021/04/19 01:50:58;;;;;;;29.30;24.48;;;1.90;1.40;;;2.74;100.00;95517.52;636203;220;32067;-74
2021/04/19 01:53:27;;;;;;;22.70;19.30;;;2.00;1.40;;;2.79;100.00;95515.20;643266;220;25562;-74
2021/04/19 01:55:56;;;;;;;26.27;20.07;;;2.10;1.40;;;2.79;100.00;95520.00;642536;221;24505;-75
2021/04/19 01:58:25;;;;;;;22.97;18.97;;;2.10;1.40;;;2.82;100.00;95517.19;642623;220;30782;-75
2021/04/19 02:00:55;;;;;;;25.77;19.30;;;2.20;1.40;;;2.80;100.00;95513.53;643299;220;24581;-75
2021/04/19 02:03:37;;;;;;;23.20;19.67;;;2.20;1.40;;;2.82;100.00;95512.95;641938;221;26187;-74
2021/04/19 02:06:25;;;;;;;25.17;19.37;;;2.20;1.40;;;2.85;100.00;95515.83;642513;220;24498;-75
2021/04/19 02:09:19;;;;;;;27.42;23.45;;;2.20;1.40;;;2.90;100.00;95514.74;619040;226;32185;-74
2021/04/19 02:12:01;;;;;;;28.13;23.10;;;2.20;1.40;;;2.94;100.00;95512.21;614514;230;23777;-73
2021/04/19 02:17:20;;;;;;;30.80;26.12;;;2.20;1.40;;;3.14;100.00;95512.02;636348;216;32177;-73
2021/04/19 02:19:50;;;;;;;32.92;26.48;;;2.30;1.40;;;3.18;100.00;95515.73;637325;219;31748;-74
2021/04/19 02:22:25;;;;;;;25.07;21.20;;;2.30;1.40;;;3.20;100.00;95513.48;642787;219;24603;-74
2021/04/19 02:27:35;;;;;;;30.23;26.10;;;2.30;1.40;;;3.22;100.00;95516.30;632111;222;31750;-75
2021/04/19 02:30:05;;;;;;;26.70;21.40;;;2.30;1.40;;;3.25;100.00;95518.78;627210;225;23825;-74
2021/04/19 02:32:34;;;;;;;26.90;22.10;;;2.40;1.40;;;3.31;100.00;95518.66;626091;225;24571;-75
2021/04/19 02:35:57;;;;;;;29.60;23.62;;;2.50;1.40;;;3.32;100.00;95516.05;645831;216;31576;-74
2021/04/19 02:38:28;;;;;;;26.10;21.37;;;2.50;1.40;;;3.28;100.00;95520.30;641304;220;23466;-73
2021/04/19 02:40:58;;;;;;;28.73;20.77;;;2.50;1.40;;;3.28;100.00;95506.64;654873;215;24496;-73
2021/04/19 02:43:27;;;;;;;23.77;19.87;;;2.50;1.40;;;3.23;100.00;95508.58;657232;215;24530;-73
2021/04/19 02:45:56;;;;;;;27.10;19.97;;;2.50;1.40;;;3.21;100.00;95507.23;668766;211;25468;-73
2021/04/19 02:48:25;;;;;;;28.20;21.10;;;2.50;1.40;;;3.11;100.00;95511.14;670081;211;24825;-73
2021/04/19 02:50:55;;;;;;;26.37;19.53;;;2.50;1.40;;;3.07;100.00;95508.27;667652;211;24467;-73
2021/04/19 02:53:24;;;;;;;27.20;20.10;;;2.40;1.40;;;3.07;100.00;95508.97;669294;211;29765;-73
2021/04/19 02:55:53;;;;;;;24.60;19.90;;;2.30;1.40;;;3.06;100.00;95505.05;669312;211;26517;-74
2021/04/19 02:58:29;;;;;;;27.00;20.47;;;2.30;1.40;;;3.00;100.00;95500.39;669815;211;24387;-73
2021/04/19 03:00:58;;;;;;;25.90;19.87;;;2.30;1.40;;;2.98;100.00;95500.27;668760;211;28879;-73
2021/04/19 03:03:27;;;;;;;24.43;20.20;;;2.30;1.40;;;3.03;100.00;95497.42;669322;211;24855;-74
2021/04/19 03:05:56;;;;;;;24.30;19.80;;;2.40;1.40;;;2.98;100.00;95496.05;669455;211;24511;-73
2021/04/19 03:08:26;;;;;;;24.67;18.57;;;2.40;1.40;;;2.97;100.00;95498.09;670032;211;24407;-74
2021/04/19 03:10:56;;;;;;;23.43;17.83;;;2.40;1.40;;;2.97;100.00;95494.41;668686;211;24442;-73
2021/04/19 03:13:25;;;;;;;24.97;19.10;;;2.40;1.40;;;2.97;100.00;95498.26;669788;211;24396;-73
2021/04/19 03:15:54;;;;;;;29.07;22.23;;;2.40;1.40;;;2.98;100.00;95491.17;644754;220;29977;-73
2021/04/19 03:18:23;;;;;;;25.73;21.17;;;2.40;1.40;;;2.98;100.00;95493.42;656424;216;25519;-73
2021/04/19 03:23:27;;;;;;;29.45;24.05;;;2.40;1.40;;;3.06;100.00;95498.14;648233;212;31569;-73
2021/04/19 03:25:56;;;;;;;29.90;22.03;;;2.40;1.40;;;3.07;100.00;95496.76;642069;221;24671;-74
2021/04/19 03:28:25;;;;;;;28.40;21.87;;;2.50;1.40;;;3.07;100.00;95494.23;640625;221;24558;-74
2021/04/19 03:30:54;;;;;;;26.90;21.40;;;2.50;1.40;;;3.09;100.00;95497.84;640487;221;24565;-74
2021/04/19 03:35:51;;;;;;;30.25;24.70;;;2.50;1.40;;;3.13;100.00;95490.85;647452;213;31648;-71
2021/04/19 03:38:20;;;;;;;30.25;25.65;;;2.60;1.40;;;3.19;100.00;95491.25;636592;221;31889;-73
2021/04/19 03:40:49;;;;;;;29.63;21.13;;;2.60;1.40;;;3.19;100.00;95494.46;641094;221;23551;-74
2021/04/19 03:43:18;;;;;;;28.10;22.83;;;2.60;1.40;;;3.16;100.00;95491.39;640972;221;24516;-74
2021/04/19 03:45:47;;;;;;;26.80;20.50;;;2.60;1.40;;;3.14;100.00;95492.09;639430;221;26700;-73
2021/04/19 03:48:16;;;;;;;28.50;22.60;;;2.50;1.40;;;3.12;100.00;95487.85;640569;220;24593;-73
2021/04/19 03:50:47;;;;;;;28.30;21.60;;;2.50;1.40;;;3.11;100.00;95488.65;652982;218;24477;-73
2021/04/19 03:53:16;;;;;;;23.83;19.00;;;2.50;1.40;;;3.15;100.00;95487.28;644078;220;27715;-77
2021/04/19 03:55:45;;;;;;;27.00;23.80;;;2.50;1.40;;;3.19;100.00;95489.64;638571;220;31845;-74
2021/04/19 03:58:14;;;;;;;27.80;21.73;;;2.50;1.40;;;3.22;100.00;95492.50;654168;216;23564;-74
2021/04/19 04:00:43;;;;;;;24.00;20.90;;;2.60;1.40;;;3.26;100.00;95495.27;668951;211;26530;-73
2021/04/19 04:03:12;;;;;;;24.57;20.23;;;2.60;1.40;;;3.32;100.00;95502.75;668523;211;24445;-74
2021/04/19 04:05:41;;;;;;;28.73;20.50;;;2.70;1.40;;;3.32;100.00;95502.11;668534;211;24759;-74
2021/04/19 04:08:10;;;;;;;27.00;19.63;;;2.70;1.40;;;3.33;100.00;95500.89;668357;211;24414;-74
2021/04/19 04:10:40;;;;;;;34.08;25.33;;;2.70;1.40;;;3.37;100.00;95504.27;664615;211;31606;-73
2021/04/19 04:13:09;;;;;;;29.37;23.47;;;2.70;1.40;;;3.41;100.00;95502.30;669409;211;23443;-74
2021/04/19 04:15:53;;;;;;;29.97;20.77;;;2.80;1.40;;;3.48;100.00;95504.87;653099;216;25600;-73
2021/04/19 04:18:22;;;;;;;27.60;20.40;;;2.80;1.40;;;3.57;100.00;95502.64;655509;216;24544;-73
2021/04/19 04:20:51;;;;;;;28.90;21.43;;;2.90;1.40;;;3.58;100.00;95506.73;655717;215;24487;-73
2021/04/19 04:25:54;;;;;;;27.90;24.25;;;2.90;1.40;;;3.62;100.00;95515.76;619324;222;32209;-73
2021/04/19 04:28:23;;;;;;;28.10;22.87;;;3.00;1.40;;;3.76;100.00;95514.79;617081;230;23855;-72
2021/04/19 04:30:53;;;;;;;27.53;21.53;;;3.00;1.40;;;3.80;100.00;95515.67;615554;230;24628;-72
2021/04/19 04:35:51;;;;;;;31.58;26.20;;;3.10;1.40;;;3.97;100.00;95517.39;646288;216;31846;-73
2021/04/19 04:38:20;;;;;;;29.63;25.80;;;3.20;1.40;;;3.83;100.00;95521.91;635490;220;42513;-73
2021/04/19 04:40:49;;;;;;;27.63;23.23;;;3.20;1.40;;;3.90;100.00;95519.80;639503;221;23479;-73
2021/04/19 04:43:19;;;;;;;26.80;21.03;;;3.20;1.40;;;3.84;100.00;95516.44;640925;220;24496;-73
2021/04/19 04:48:25;;;;;;;28.45;24.08;;;3.20;1.40;;;3.92;100.00;95519.30;647319;216;31618;-73
2021/04/19 04:51:04;;;;;;;28.43;25.33;;;3.20;1.40;;;4.08;100.00;95518.94;635118;220;31788;-73
2021/04/19 04:53:37;;;;;;;29.03;22.63;;;3.30;1.40;;;3.99;100.00;95520.88;640355;221;24717;-73
2021/04/19 04:56:06;;;;;;;22.57;19.93;;;3.30;1.40;;;4.01;100.00;95519.87;641113;221;24525;-73
2021/04/19 04:58:36;;;;;;;29.53;21.90;;;3.30;1.40;;;4.07;100.00;95518.61;640972;221;24612;-74
2021/04/19 05:03:42;;;;;;;27.60;23.48;;;3.40;1.40;;;4.09;100.00;95519.91;617949;222;31972;-72
2021/04/19 05:06:11;;;;;;;27.57;21.53;;;3.40;1.40;;;4.08;100.00;95523.18;614988;230;24641;-72
2021/04/19 05:08:40;;;;;;;28.08;24.17;;;3.40;1.40;;;4.17;100.00;95523.56;611782;230;32160;-73
2021/04/19 05:11:10;;;;;;;24.93;21.67;;;3.40;1.40;;;4.23;100.00;95522.41;615684;229;24976;-73
2021/04/19 05:13:38;;;;;;;29.97;21.23;;;3.50;1.40;;;4.30;100.00;95518.92;615246;230;24589;-73
2021/04/19 05:16:07;;;;;;;30.90;25.35;;;3.50;1.40;;;4.45;100.00;95521.49;607951;230;32225;-72
2021/04/19 05:18:36;;;;;;;25.67;20.40;;;3.60;1.40;;;4.54;100.00;95516.82;616398;230;26797;-73
2021/04/19 05:21:05;;;;;;;24.77;19.70;;;3.70;1.40;;;4.58;100.00;95514.63;616535;230;25725;-71
2021/04/19 05:23:35;;;;;;;28.70;20.67;;;3.70;1.40;;;4.57;100.00;95510.28;615174;229;24637;-73
2021/04/19 05:26:04;;;;;;;25.33;21.20;;;3.70;1.40;;;4.63;100.00;95515.82;605655;234;24697;-73
2021/04/19 05:28:33;;;;;;;26.40;19.83;;;3.70;1.40;;;4.72;100.00;95516.30;607393;234;25725;-73
2021/04/19 05:31:02;;;;;;;23.23;18.90;;;3.80;1.40;;;4.95;100.00;95511.63;616865;230;25676;-74
2021/04/19 05:35:51;;;;;;;30.75;24.83;;;4.10;1.40;;;5.02;100.00;95509.99;646029;212;32229;-74
2021/04/19 05:38:20;;;;;;;27.73;24.83;;;4.10;1.40;;;4.97;100.00;95511.09;635932;220;32300;-74
2021/04/19 05:40:49;;;;;;;27.13;24.23;;;4.10;1.40;;;5.03;100.00;95504.46;634782;221;34249;-73
2021/04/19 05:43:18;;;;;;;26.80;23.98;;;4.10;1.40;;;5.06;99.76;95508.59;634195;221;31778;-73
2021/04/19 05:45:47;;;;;;;28.47;22.50;;;4.20;1.40;;;5.16;99.42;95516.45;642318;220;31228;-74
2021/04/19 05:48:17;;;;;;;27.40;20.73;;;4.30;1.40;;;5.26;99.55;95511.95;669525;211;24432;-73
2021/04/19 05:50:45;;;;;;;30.50;18.67;;;4.40;1.40;;;5.23;99.04;95515.30;667839;211;24474;-73
2021/04/19 05:53:14;;;;;;;28.25;24.20;;;4.40;1.40;;;5.46;98.50;95512.08;662814;211;31441;-72
2021/04/19 05:55:44;;;;;;;22.50;19.30;;;4.60;1.40;;;5.58;97.44;95514.38;669678;211;28705;-73
2021/04/19 05:58:15;;;;;;;23.10;20.03;;;4.70;1.40;;;5.66;96.55;95517.34;668288;211;24437;-72
2021/04/19 06:00:53;;;;;;;23.73;19.00;;;4.70;1.40;;;5.77;95.55;95521.44;668607;211;24449;-73
2021/04/19 06:03:26;;;;;;;25.83;20.67;;;4.80;1.40;;;5.84;95.17;95521.91;669266;211;24423;-73
2021/04/19 06:06:28;;;;;;;24.17;20.70;;;4.80;1.40;;;5.86;94.89;95523.30;648703;219;24473;-73
2021/04/19 06:09:10;;;;;;;28.30;22.35;;;4.90;1.40;;;5.97;94.62;95522.90;645757;212;31620;-73
2021/04/19 06:11:42;;;;;;;28.53;22.97;;;4.90;1.40;;;6.07;94.62;95519.27;639827;220;23485;-73
2021/04/19 06:14:11;;;;;;;24.07;20.50;;;5.00;1.40;;;5.90;94.15;95525.53;640424;221;24803;-72
2021/04/19 06:16:41;;;;;;;28.05;24.02;;;5.00;1.40;;;5.89;95.02;95519.09;627852;221;31939;-73
2021/04/19 06:19:10;;;;;;;26.63;22.07;;;4.90;1.40;;;5.82;94.75;95520.41;644116;220;23468;-73
2021/04/19 06:21:39;;;;;;;27.87;21.53;;;5.00;1.40;;;6.16;94.61;95523.25;630393;224;24913;-72
2021/04/19 06:24:08;;;;;;;28.13;21.00;;;5.30;1.40;;;6.43;92.43;95519.83;639365;223;26682;-72
2021/04/19 06:26:38;;;;;;;28.33;21.03;;;5.50;1.40;;;6.58;91.22;95526.56;642580;221;24582;-73
2021/04/19 06:29:08;;;;;;;26.93;20.00;;;5.50;1.40;;;6.83;89.88;95523.97;641241;220;24556;-74
2021/04/19 06:31:36;;;;;;;25.40;20.67;;;5.60;1.40;;;7.21;89.17;95522.69;655706;215;24499;-73
2021/04/19 06:35:52;;;;;;;25.35;22.20;;;6.20;1.40;;;7.47;85.79;95530.30;646150;216;31550;-72
2021/04/19 06:38:21;;;;;;;22.50;19.87;;;6.20;1.40;;;7.16;85.01;95525.09;640265;220;23508;-71
2021/04/19 06:40:50;;;;;;;25.00;21.47;;;6.20;1.40;;;7.10;85.47;95523.30;639242;221;28003;-71
2021/04/19 06:43:19;;;;;;;22.87;19.90;;;6.20;1.40;;;7.57;84.95;95530.42;640817;220;24544;-73
2021/04/19 06:45:48;;;;;;;25.67;19.50;;;6.40;1.40;;;7.73;83.32;95526.53;655992;215;24468;-74
2021/04/19 06:48:17;;;;;;;22.63;19.93;;;6.60;1.40;;;7.95;82.74;95527.36;649728;219;24938;-74
2021/04/19 06:50:48;;;;;;;23.40;19.77;;;6.70;1.40;;;8.27;82.65;95525.92;654586;216;24540;-73
2021/04/19 06:53:15;;;;;;;21.03;18.70;;;6.80;1.40;;;8.43;80.43;95526.23;667602;211;24603;-73
2021/04/19 06:55:44;;;;;;;22.90;19.60;;;7.10;1.40;;;8.36;80.53;95525.20;667750;211;24431;-71
2021/04/19 06:58:13;;;;;;;21.90;18.30;;;7.10;1.40;;;8.25;81.95;95519.31;668416;211;28816;-72
2021/04/19 07:00:43;;;;;;;21.80;19.00;;;7.10;1.40;;;7.71;81.24;95521.69;668727;211;24425;-71
2021/04/19 07:03:12;;;;;;;24.63;21.33;;;6.70;1.40;;;8.17;82.54;95518.67;663743;211;31465;-72
2021/04/19 07:05:41;;;;;;;21.33;18.97;;;7.10;1.40;;;8.32;79.36;95522.08;670290;211;24486;-71
2021/04/19 07:08:33;;;;;;;21.00;18.70;;;7.20;1.40;;;8.71;78.48;95519.91;668657;211;24425;-73
2021/04/19 07:11:03;;;;;;;22.58;20.27;;;7.50;1.40;;;8.68;78.61;95520.09;661324;211;31938;-72
2021/04/19 07:13:32;;;;;;;23.17;19.80;;;7.40;1.40;;;8.44;80.02;95521.19;643689;220;23538;-72
2021/04/19 07:16:01;;;;;;;20.40;18.30;;;7.20;1.40;;;8.57;79.85;95516.62;665567;211;24524;-72
2021/04/19 07:18:30;;;;;;;21.63;16.97;;;7.30;1.40;;;8.65;79.06;95518.41;643339;221;24506;-73
2021/04/19 07:20:59;;;;;;;20.10;17.63;;;7.40;1.40;;;8.76;79.13;95514.45;634000;224;24765;-73
2021/04/19 07:23:28;;;;;;;20.13;17.03;;;7.50;1.40;;;8.55;79.42;95513.86;654065;215;24515;-73
2021/04/19 07:25:58;;;;;;;21.00;18.33;;;7.30;1.40;;;8.70;78.04;95511.74;641170;221;28987;-72
2021/04/19 07:28:27;;;;;;;20.27;16.80;;;7.50;1.40;;;8.94;76.88;95510.44;640433;223;24758;-73
2021/04/19 07:35:51;;;;;;;23.75;21.10;;;7.40;1.40;;;8.89;76.05;95510.00;647563;216;31614;-73
2021/04/19 07:38:31;;;;;;;22.70;20.27;;;7.90;1.40;;;9.38;74.51;95502.89;637137;220;31804;-74
2021/04/19 07:41:00;;;;;;;21.03;18.83;;;8.40;1.40;;;9.83;71.64;95501.95;642285;220;23478;-71
2021/04/19 07:43:29;;;;;;;21.00;18.10;;;8.80;1.40;;;10.14;71.58;95498.23;638711;221;24576;-71
2021/04/19 07:46:01;;;;;;;19.63;16.67;;;9.00;1.40;;;10.44;70.68;95502.16;640148;221;24526;-73
2021/04/19 07:48:32;;;;;;;23.10;18.57;;;9.00;1.40;;;10.67;70.32;95502.31;640438;221;27811;-72
2021/04/19 07:51:01;;;;;;;18.23;16.27;;;8.90;1.40;;;10.75;67.91;95502.96;638786;221;24491;-72
2021/04/19 07:53:30;;;;;;;20.97;16.47;;;9.20;1.40;;;10.95;67.53;95501.25;637280;221;24548;-72
2021/04/19 07:55:59;;;;;;;20.35;17.67;;;9.20;1.40;;;11.15;67.43;95495.06;635868;221;32110;-72
2021/04/19 07:58:29;;;;;;;19.95;17.95;;;9.30;1.40;;;10.95;66.82;95503.90;633814;220;31762;-73
2021/04/19 08:01:02;;;;;;;21.00;19.00;;;8.80;1.40;;;10.53;67.66;95503.06;635194;220;32027;-71
2021/04/19 08:03:39;;;;;;;19.27;17.40;;;8.30;1.40;;;10.91;66.19;95502.41;654093;216;23444;-72
2021/04/19 08:06:19;;;;;;;20.42;17.58;;;8.60;1.40;;;11.50;68.35;95499.44;649729;215;31642;-72
2021/04/19 08:08:48;;;;;;;19.70;17.67;;;9.00;1.40;;;11.63;66.02;95498.80;668227;211;23651;-72
2021/04/19 08:11:18;;;;;;;21.17;19.07;;;9.30;1.40;;;11.36;64.81;95499.08;662082;211;31388;-72
2021/04/19 08:13:47;;;;;;;20.30;17.47;;;9.10;1.40;;;11.27;64.39;95501.42;634823;221;32894;-72
2021/04/19 08:16:17;;;;;;;19.53;17.63;;;9.00;1.40;;;11.43;65.96;95502.16;643904;216;31764;-72
2021/04/19 08:18:46;;;;;;;18.90;16.90;;;8.90;1.40;;;11.09;64.53;95501.48;649210;215;32883;-72
2021/04/19 08:21:30;;;;;;;19.40;17.40;;;8.60;1.40;;;11.18;65.14;95498.39;649921;216;31641;-72
2021/04/19 08:24:12;;;;;;;20.23;18.10;;;8.90;1.40;;;11.16;65.58;95499.95;642206;221;28052;-71
2021/04/19 08:26:50;;;;;;;17.97;15.40;;;9.10;1.40;;;11.71;65.81;95503.28;656535;216;24474;-72
2021/04/19 08:32:15;;;;;;;19.80;17.70;;;9.50;1.40;;;11.25;64.53;95500.55;646115;212;31658;-72
2021/04/19 08:35:54;;;;;;;19.15;17.15;;;9.10;1.40;;;11.34;66.34;95502.70;647347;216;31708;-72
2021/04/19 08:38:23;;;;;;;19.10;16.90;;;9.00;1.40;;;11.10;64.14;95499.25;640577;221;23473;-71
2021/04/19 08:40:52;;;;;;;16.93;15.30;;;9.10;1.40;;;10.83;63.42;95507.36;641727;221;24524;-71
2021/04/19 08:43:22;;;;;;;17.53;14.87;;;9.10;1.40;;;11.13;64.37;95499.88;640841;221;24588;-72
2021/04/19 08:45:51;;;;;;;17.23;15.43;;;9.10;1.40;;;11.42;64.61;95501.48;653468;216;24475;-72
2021/04/19 08:48:20;;;;;;;18.60;15.97;;;9.40;1.40;;;11.52;62.50;95503.50;668894;211;28742;-71
2021/04/19 08:50:51;;;;;;;17.83;16.03;;;9.50;1.40;;;11.24;63.90;95500.36;654932;216;24445;-72
2021/04/19 08:55:55;;;;;;;17.95;16.10;;;9.80;1.40;;;11.51;62.25;95504.52;646385;216;31746;-71
2021/04/19 08:58:24;;;;;;;17.63;15.87;;;10.10;1.40;;;12.58;60.98;95503.43;640550;221;23591;-72
2021/04/19 09:00:53;;;;;;;17.47;15.03;;;11.10;1.40;;;12.99;55.73;95505.33;640177;221;24507;-72
2021/04/19 09:03:22;;;;;;;16.47;14.70;;;12.70;1.40;;;13.91;56.08;95499.58;640213;221;24517;-72
2021/04/19 09:05:51;;;;;;;16.97;15.37;;;13.70;1.40;;;12.75;55.63;95504.92;640989;221;28776;-72
2021/04/19 09:08:20;;;;;;;15.30;13.90;;;11.50;1.40;;;12.28;57.45;95503.66;639729;221;25630;-71
2021/04/19 09:10:52;;;;;;;15.57;14.10;;;10.60;1.40;;;13.97;53.86;95495.55;636006;221;31791;-72
2021/04/19 09:13:27;;;;;;;15.13;13.60;;;12.90;1.40;;;16.06;54.06;95491.73;640945;221;24538;-72
2021/04/19 09:15:56;;;;;;;15.67;14.10;;;14.60;1.40;;;16.65;48.11;95494.95;636235;221;23577;-72
2021/04/19 09:18:25;;;;;;;15.40;13.90;;;15.40;1.40;;;15.32;50.48;95495.41;631829;224;24644;-72
2021/04/19 09:20:55;;;;;;;16.73;15.10;;;14.90;1.40;;;15.52;49.00;95497.36;639765;223;23541;-71
2021/04/19 09:23:26;;;;;;;15.35;13.88;;;14.30;1.40;;;14.94;53.45;95488.11;626016;224;31910;-72
2021/04/19 09:25:55;;;;;;;14.67;13.17;;;14.00;1.40;;;18.12;49.10;95485.59;655309;215;22476;-72
2021/04/19 09:28:53;;;;;;;14.90;13.57;;;15.00;1.40;;;17.97;44.68;95485.10;654885;215;24322;-72
2021/04/19 09:31:22;;;;;;;14.57;13.27;;;13.40;1.40;;;15.72;46.56;95480.28;654352;215;23505;-72
2021/04/19 09:35:53;;;;;;;15.38;13.98;;;13.90;1.40;;;15.17;48.69;95482.05;620145;222;32062;-72
2021/04/19 09:43:36;;;;;;;15.40;13.90;;;12.00;1.40;;;14.83;50.50;95481.00;646522;216;42256;-73
2021/04/19 09:46:23;;;;;;;16.45;14.95;;;11.80;1.40;;;13.31;56.57;95480.07;635289;221;31902;-73
2021/04/19 09:49:04;;;;;;;17.87;15.98;;;10.60;1.40;;;12.53;60.31;95481.77;646508;216;42351;-71
2021/04/19 09:51:37;;;;;;;17.63;15.87;;;10.20;1.40;;;12.01;62.82;95481.08;641770;220;22482;-71
2021/04/19 09:56:43;;;;;;;19.80;17.87;;;10.30;1.40;;;12.19;62.96;95483.17;646784;216;31640;-71
2021/04/19 09:59:16;;;;;;;20.20;17.83;;;10.50;1.40;;;12.73;61.61;95478.65;640681;221;22720;-71
2021/04/19 10:01:48;;;;;;;20.37;18.37;;;10.90;1.40;;;13.09;60.51;95481.25;648848;215;31642;-71
2021/04/19 10:04:17;;;;;;;19.20;17.20;;;11.10;1.40;;;13.44;59.31;95470.37;641346;219;23481;-71
2021/04/19 10:06:50;;;;;;;17.30;15.70;;;11.00;1.40;;;13.93;57.58;95471.98;643369;220;24590;-72
2021/04/19 10:11:59;;;;;;;18.10;16.30;;;10.60;1.40;;;12.77;56.72;95469.06;646692;216;31659;-73
2021/04/19 10:17:02;;;;;;;16.60;15.00;;;10.50;1.40;;;13.02;57.31;95471.02;609762;226;42854;-72
2021/04/19 10:22:07;;;;;;;16.70;15.10;;;10.40;1.40;;;13.27;55.95;95467.29;646947;216;42262;-73
2021/04/19 10:24:37;;;;;;;17.10;14.83;;;10.40;1.40;;;12.40;56.99;95471.39;639918;221;27749;-71
2021/04/19 10:27:07;;;;;;;17.53;15.70;;;10.00;1.40;;;11.94;57.87;95471.78;640286;220;24545;-72
2021/04/19 10:29:36;;;;;;;16.63;14.93;;;9.90;1.40;;;11.51;59.75;95471.45;640920;220;24521;-72
2021/04/19 10:32:05;;;;;;;15.30;13.63;;;9.70;1.40;;;11.56;59.35;95469.95;639021;220;24518;-72
2021/04/19 10:35:52;;;;;;;15.23;13.73;;;9.70;1.40;;;11.74;58.36;95465.87;645845;216;31625;-71
2021/04/19 10:38:21;;;;;;;15.30;13.07;;;9.80;1.40;;;11.76;57.66;95464.99;640579;220;23543;-73
2021/04/19 10:40:58;;;;;;;15.57;13.87;;;9.90;1.40;;;12.28;58.06;95455.14;641507;221;24508;-72
2021/04/19 10:43:27;;;;;;;15.40;14.00;;;10.30;1.40;;;12.55;57.41;95457.13;635470;221;32369;-73
2021/04/19 10:45:56;;;;;;;15.60;14.02;;;10.50;1.40;;;12.21;58.42;95457.50;635232;220;31966;-73
2021/04/19 10:48:25;;;;;;;16.20;14.50;;;10.30;1.40;;;13.10;56.45;95450.48;644074;218;31987;-73
2021/04/19 10:50:55;;;;;;;15.65;14.15;;;10.90;1.40;;;13.39;55.84;95451.07;663648;211;32421;-74
2021/04/19 10:53:35;;;;;;;15.77;14.18;;;11.50;1.40;;;14.00;52.11;95452.47;663433;211;31431;-73
2021/04/19 10:56:04;;;;;;;14.35;12.90;;;12.20;1.40;;;14.26;52.67;95451.30;663464;211;31804;-72
2021/04/19 10:58:33;;;;;;;15.93;14.33;;;12.20;1.40;;;14.79;49.79;95446.88;663332;211;32002;-72
2021/04/19 11:01:02;;;;;;;14.32;13.07;;;12.30;1.40;;;14.87;50.61;95443.95;662663;211;35470;-74
2021/04/19 11:03:35;;;;;;;15.70;14.20;;;11.80;1.40;;;13.40;52.83;95442.63;643966;219;31671;-72
2021/04/19 11:06:04;;;;;;;15.93;14.33;;;11.00;1.40;;;13.99;57.06;95442.27;641590;220;22493;-72
2021/04/19 11:08:45;;;;;;;13.93;12.60;;;11.30;1.40;;;12.62;57.07;95440.33;669273;211;23806;-73
2021/04/19 11:11:31;;;;;;;14.87;13.07;;;10.60;1.40;;;12.42;59.72;95437.18;667800;211;23446;-74
2021/04/19 11:16:59;;;;;;;12.10;10.90;;;11.50;1.40;;;13.39;53.18;95431.30;640083;212;32188;-71
2021/04/19 11:19:41;;;;;;;12.70;11.40;;;11.90;1.40;;;14.65;52.61;95429.22;642945;221;23684;-71
2021/04/19 11:27:26;;;;;;;12.30;11.10;;;12.40;1.40;;;14.17;50.93;95425.98;646613;212;35125;-71
2021/04/19 11:29:55;;;;;;;12.02;10.93;;;12.20;1.40;;;14.19;51.79;95422.45;636395;221;31867;-71
2021/04/19 11:35:51;;;;;;;12.37;11.07;;;12.50;1.40;;;14.37;53.03;95410.11;645891;216;31626;-71
2021/04/19 11:38:22;;;;;;;11.48;10.38;;;12.80;1.40;;;14.52;52.80;95410.64;635368;221;31969;-72
2021/04/19 11:40:51;;;;;;;12.37;11.07;;;12.80;1.40;;;15.00;52.80;95407.08;641287;221;23522;-72
2021/04/19 11:43:25;;;;;;;12.10;10.90;;;13.20;1.40;;;15.26;51.01;95407.44;640023;221;25640;-72
2021/04/19 11:45:56;;;;;;;12.40;10.40;;;12.80;1.40;;;13.90;52.93;95412.56;635102;221;32008;-73
2021/04/19 11:48:25;;;;;;;12.10;11.00;;;11.70;1.40;;;14.23;52.81;95405.55;640277;221;22498;-72
2021/04/19 11:50:54;;;;;;;12.90;11.70;;;12.00;1.40;;;14.68;52.85;95405.33;639973;220;24512;-72
2021/04/19 11:53:24;;;;;;;11.73;10.53;;;12.60;1.40;;;15.62;51.31;95402.51;654155;216;23494;-73